createdAt,value
2023-05-23T00:00:15.589Z,6.72
2023-05-23T00:02:43.084Z,3.08
2023-05-23T00:05:09.998Z,2.55
2023-05-23T00:07:36.832Z,6.18
2023-05-23T00:10:04.412Z,3.15
2023-05-23T00:12:31.177Z,4.05
2023-05-23T00:14:57.946Z,5.55
2023-05-23T00:17:26.392Z,8.88
2023-05-23T00:19:53.210Z,8.00
2023-05-23T00:22:19.976Z,5.22
2023-05-23T00:24:46.733Z,5.57
2023-05-23T00:27:13.550Z,8.35
2023-05-23T00:29:40.247Z,20.95
2023-05-23T00:32:06.946Z,26.20
2023-05-23T00:34:34.565Z,4.45
2023-05-23T00:37:02.375Z,2.97
2023-05-23T00:39:29.492Z,3.45
2023-05-23T00:41:56.421Z,2.75
2023-05-23T00:44:23.113Z,3.90
2023-05-23T00:46:52.370Z,3.03
2023-05-23T00:49:20.432Z,3.72
2023-05-23T00:51:47.363Z,3.60
2023-05-23T00:54:14.056Z,10.00
2023-05-23T00:56:41.345Z,10.95
2023-05-23T00:59:08.058Z,29.48
2023-05-23T01:01:36.984Z,53.38
2023-05-23T01:04:04.623Z,4.13
2023-05-23T01:06:33.798Z,3.35
2023-05-23T01:12:01.628Z,3.25
2023-05-23T01:15:06.666Z,2.97
2023-05-23T01:17:44.987Z,6.53
2023-05-23T01:20:12.849Z,3.97
2023-05-23T01:23:00.716Z,5.90
2023-05-23T01:25:49.779Z,3.90
2023-05-23T01:28:20.588Z,6.47
2023-05-23T01:30:47.328Z,5.15
2023-05-23T01:33:14.539Z,2.90
2023-05-23T01:35:41.422Z,3.40
2023-05-23T01:38:08.237Z,3.38
2023-05-23T01:40:34.964Z,3.47
2023-05-23T01:43:02.623Z,3.97
2023-05-23T01:45:29.414Z,2.90
2023-05-23T01:47:56.390Z,3.28
2023-05-23T01:50:23.597Z,5.28
2023-05-23T01:52:50.828Z,2.97
2023-05-23T01:55:22.824Z,2.67
2023-05-23T01:57:56.618Z,2.60
2023-05-23T02:00:23.425Z,3.13
2023-05-23T02:02:50.371Z,4.47
2023-05-23T02:05:17.343Z,7.43
2023-05-23T02:07:44.046Z,3.00
2023-05-23T02:10:10.813Z,3.10
2023-05-23T02:12:37.633Z,3.97
2023-05-23T02:15:04.797Z,2.85
2023-05-23T02:17:31.675Z,2.70
2023-05-23T02:19:58.428Z,16.40
2023-05-23T02:22:25.789Z,9.52
2023-05-23T02:24:52.554Z,21.77
2023-05-23T02:27:19.496Z,3.60
2023-05-23T02:29:46.136Z,9.05
2023-05-23T02:32:12.884Z,6.60
2023-05-23T02:34:40.474Z,6.80
2023-05-23T02:37:07.451Z,3.65
2023-05-23T02:39:36.727Z,7.75
2023-05-23T02:42:04.916Z,6.72
2023-05-23T02:44:32.000Z,28.45
2023-05-23T02:46:58.631Z,24.95
2023-05-23T02:49:25.783Z,15.20
2023-05-23T02:51:52.437Z,13.90
2023-05-23T02:54:19.191Z,13.68
2023-05-23T02:56:46.044Z,4.72
2023-05-23T02:59:12.852Z,3.47
2023-05-23T03:01:39.598Z,3.92
2023-05-23T03:04:06.442Z,15.23
2023-05-23T03:06:34.237Z,12.25
2023-05-23T03:09:01.518Z,8.45
2023-05-23T03:11:29.899Z,5.47
2023-05-23T03:13:56.582Z,8.95
2023-05-23T03:16:24.152Z,6.63
2023-05-23T03:18:50.907Z,3.05
2023-05-23T03:21:17.665Z,38.75
2023-05-23T03:23:44.267Z,13.02
2023-05-23T03:26:11.813Z,55.47
2023-05-23T03:28:38.433Z,72.25
2023-05-23T03:31:05.296Z,37.88
2023-05-23T03:33:31.938Z,37.97
2023-05-23T03:35:58.523Z,43.15
2023-05-23T03:38:25.584Z,39.85
2023-05-23T03:40:52.259Z,7.70
2023-05-23T03:43:18.938Z,7.00
2023-05-23T03:45:45.773Z,32.67
2023-05-23T03:48:12.958Z,17.77
2023-05-23T03:50:39.768Z,64.18
2023-05-23T03:53:07.252Z,42.80
2023-05-23T03:55:34.370Z,38.47
2023-05-23T03:58:01.054Z,40.22
2023-05-23T04:00:27.819Z,24.67
2023-05-23T04:02:54.763Z,56.83
2023-05-23T04:05:21.758Z,26.50
2023-05-23T04:07:49.167Z,59.53
2023-05-23T04:10:15.918Z,26.83
2023-05-23T04:12:42.989Z,27.80
2023-05-23T04:15:10.167Z,15.98
2023-05-23T04:17:39.073Z,31.83
2023-05-23T04:20:12.949Z,6.00
2023-05-23T04:22:39.800Z,3.53
2023-05-23T04:25:06.892Z,11.10
2023-05-23T04:27:34.694Z,24.90
2023-05-23T04:30:01.728Z,5.88
2023-05-23T04:32:28.610Z,25.10
2023-05-23T04:34:56.918Z,18.55
2023-05-23T04:37:26.423Z,11.07
2023-05-23T04:39:53.322Z,15.88
2023-05-23T04:42:24.653Z,11.45
2023-05-23T04:44:52.827Z,11.77
2023-05-23T04:47:19.661Z,27.45
2023-05-23T04:49:46.336Z,15.55
2023-05-23T04:52:13.485Z,10.32
2023-05-23T04:54:44.681Z,7.85
2023-05-23T04:57:12.492Z,5.38
2023-05-23T04:59:39.514Z,3.17
2023-05-23T05:02:06.604Z,4.35
2023-05-23T05:04:33.371Z,31.77
2023-05-23T05:07:00.072Z,34.88
2023-05-23T05:09:26.805Z,25.98
2023-05-23T05:11:53.436Z,15.75
2023-05-23T05:14:20.126Z,5.47
2023-05-23T05:16:47.957Z,6.82
2023-05-23T05:19:14.815Z,16.33
2023-05-23T05:21:41.526Z,5.32
2023-05-23T05:24:09.751Z,7.18
2023-05-23T05:26:36.744Z,5.82
2023-05-23T05:29:03.482Z,5.97
2023-05-23T05:31:30.349Z,6.97
2023-05-23T05:33:57.109Z,5.68
2023-05-23T05:36:23.817Z,6.28
2023-05-23T05:38:51.196Z,4.75
2023-05-23T05:41:17.995Z,35.78
2023-05-23T05:43:44.617Z,11.77
2023-05-23T05:46:11.476Z,5.10
2023-05-23T05:48:38.318Z,5.32
2023-05-23T05:51:04.997Z,11.90
2023-05-23T05:53:31.745Z,4.93
2023-05-23T05:55:58.377Z,5.75
2023-05-23T05:58:25.126Z,8.75
2023-05-23T06:00:51.868Z,6.38
2023-05-23T06:03:18.598Z,4.57
2023-05-23T06:05:45.478Z,7.28
2023-05-23T06:08:12.149Z,3.25
2023-05-23T06:10:39.884Z,43.35
2023-05-23T06:13:06.857Z,5.35
2023-05-23T06:15:33.573Z,9.82
2023-05-23T06:18:00.199Z,17.48
2023-05-23T06:20:27.062Z,7.30
2023-05-23T06:22:53.828Z,5.75
2023-05-23T06:25:20.645Z,4.78
2023-05-23T06:27:47.398Z,5.10
2023-05-23T06:30:14.734Z,7.43
2023-05-23T06:32:41.463Z,6.38
2023-05-23T06:35:08.456Z,6.68
2023-05-23T06:37:35.350Z,5.43
2023-05-23T06:40:01.999Z,6.47
2023-05-23T06:42:28.665Z,6.28
2023-05-23T06:44:55.500Z,5.13
2023-05-23T06:47:23.329Z,6.43
2023-05-23T06:49:50.145Z,5.20
2023-05-23T06:52:16.926Z,9.07
2023-05-23T06:54:43.870Z,6.63
2023-05-23T06:57:10.552Z,6.20
2023-05-23T06:59:37.280Z,4.85
2023-05-23T07:02:03.941Z,5.97
2023-05-23T07:04:30.630Z,6.35
2023-05-23T07:06:57.281Z,6.38
2023-05-23T07:09:24.086Z,5.15
2023-05-23T07:11:50.870Z,7.63
2023-05-23T07:14:17.801Z,6.68
2023-05-23T07:16:44.541Z,6.00
2023-05-23T07:19:11.413Z,5.35
2023-05-23T07:21:38.137Z,6.93
2023-05-23T07:24:06.058Z,8.75
2023-05-23T07:26:32.877Z,6.40
2023-05-23T07:28:59.620Z,7.70
2023-05-23T07:31:26.436Z,7.53
2023-05-23T07:33:56.913Z,16.95
2023-05-23T07:36:23.930Z,7.13
2023-05-23T07:38:50.587Z,6.00
2023-05-23T07:41:17.346Z,6.55
2023-05-23T07:43:44.086Z,5.82
2023-05-23T07:46:11.118Z,5.40
2023-05-23T07:48:37.972Z,6.63
2023-05-23T07:51:04.743Z,7.28
2023-05-23T07:53:31.597Z,7.85
2023-05-23T07:55:58.237Z,7.15
2023-05-23T07:58:25.070Z,5.97
2023-05-23T08:00:53.207Z,4.25
2023-05-23T08:03:20.163Z,4.22
2023-05-23T08:05:47.397Z,7.05
2023-05-23T08:08:14.031Z,5.38
2023-05-23T08:10:40.970Z,6.50
2023-05-23T08:13:09.851Z,7.00
2023-05-23T08:15:36.549Z,6.93
2023-05-23T08:18:04.589Z,5.15
2023-05-23T08:20:32.270Z,4.25
2023-05-23T08:23:02.346Z,4.60
2023-05-23T08:25:30.574Z,7.50
2023-05-23T08:27:58.629Z,3.35
2023-05-23T08:30:25.935Z,5.03
2023-05-23T08:32:53.394Z,5.22
2023-05-23T08:35:20.249Z,5.90
2023-05-23T08:37:47.043Z,5.25
2023-05-23T08:40:21.409Z,4.18
2023-05-23T08:42:49.079Z,4.70
2023-05-23T08:45:16.552Z,3.55
2023-05-23T08:47:44.815Z,5.43
2023-05-23T08:50:13.151Z,5.82
2023-05-23T08:52:56.610Z,4.63
2023-05-23T08:55:27.971Z,7.28
2023-05-23T08:57:55.184Z,5.90
2023-05-23T09:00:22.553Z,4.18
2023-05-23T09:02:49.565Z,4.45
2023-05-23T09:05:16.816Z,4.40
2023-05-23T09:07:45.105Z,7.72
2023-05-23T09:10:12.364Z,5.63
2023-05-23T09:12:39.182Z,6.07
2023-05-23T09:15:06.755Z,3.80
2023-05-23T09:17:33.652Z,4.68
2023-05-23T09:20:00.955Z,4.25
2023-05-23T09:22:28.099Z,5.47
2023-05-23T09:24:55.722Z,3.72
2023-05-23T09:27:22.548Z,13.73
2023-05-23T09:29:49.825Z,4.80
2023-05-23T09:32:17.880Z,5.32
2023-05-23T09:34:50.842Z,6.10
2023-05-23T09:37:19.590Z,5.68
2023-05-23T09:39:47.634Z,5.88
2023-05-23T09:42:20.929Z,6.20
2023-05-23T09:44:47.669Z,4.38
2023-05-23T09:47:16.223Z,6.47
2023-05-23T09:49:46.431Z,6.43
2023-05-23T09:52:13.630Z,3.60
2023-05-23T09:54:40.716Z,3.80
2023-05-23T09:57:11.127Z,3.30
2023-05-23T09:59:39.860Z,4.78
2023-05-23T10:02:11.614Z,6.90
2023-05-23T10:04:39.490Z,5.63
2023-05-23T10:07:15.990Z,4.45
2023-05-23T10:09:43.810Z,9.20
2023-05-23T10:12:31.956Z,6.30
2023-05-23T10:15:08.719Z,3.95
2023-05-23T10:17:35.297Z,3.45
2023-05-23T10:20:08.496Z,3.25
2023-05-23T10:22:38.377Z,4.43
2023-05-23T10:25:06.498Z,3.88
2023-05-23T10:27:33.199Z,4.35
2023-05-23T10:29:59.902Z,5.80
2023-05-23T10:32:27.597Z,4.78
2023-05-23T10:35:08.455Z,6.18
2023-05-23T10:37:56.322Z,3.83
2023-05-23T10:40:32.689Z,6.72
2023-05-23T10:43:35.093Z,5.95
2023-05-23T10:46:01.801Z,3.10
2023-05-23T10:48:28.494Z,4.15
2023-05-23T10:51:08.510Z,3.95
2023-05-23T10:53:39.557Z,3.80
2023-05-23T10:56:07.593Z,3.63
2023-05-23T10:58:39.238Z,3.53
2023-05-23T11:01:07.685Z,2.63
2023-05-23T11:03:40.720Z,3.67
2023-05-23T11:06:07.648Z,3.42
2023-05-23T11:08:48.447Z,5.70
2023-05-23T11:11:15.721Z,4.32
2023-05-23T11:14:00.314Z,4.55
2023-05-23T11:16:49.169Z,6.45
2023-05-23T11:19:19.025Z,4.53
2023-05-23T11:21:46.788Z,4.35
2023-05-23T11:24:13.486Z,3.38
2023-05-23T11:26:40.155Z,5.28
2023-05-23T11:29:09.988Z,4.47
2023-05-23T11:31:40.691Z,4.13
2023-05-23T11:34:07.564Z,4.25
2023-05-23T11:36:35.108Z,4.65
2023-05-23T11:39:04.931Z,4.78
2023-05-23T11:41:31.828Z,3.75
2023-05-23T11:43:59.904Z,5.35
2023-05-23T11:46:27.027Z,4.28
2023-05-23T11:48:54.995Z,2.65
2023-05-23T11:51:21.929Z,3.80
2023-05-23T11:53:48.557Z,4.70
2023-05-23T11:56:15.738Z,3.75
2023-05-23T11:58:42.793Z,8.07
2023-05-23T12:01:11.635Z,4.35
2023-05-23T12:03:48.988Z,2.80
2023-05-23T12:06:16.752Z,8.10
2023-05-23T12:08:43.505Z,3.83
2023-05-23T12:11:10.274Z,4.82
2023-05-23T12:13:36.988Z,2.85
2023-05-23T12:16:04.876Z,7.07
2023-05-23T12:18:32.454Z,3.67
2023-05-23T12:21:03.326Z,6.10
2023-05-23T12:23:31.342Z,4.22
2023-05-23T12:25:59.815Z,4.75
2023-05-23T12:28:35.894Z,10.55
2023-05-23T12:31:31.797Z,6.53
2023-05-23T12:33:58.483Z,6.38
2023-05-23T12:36:26.350Z,6.20
2023-05-23T12:38:53.623Z,7.05
2023-05-23T12:41:22.311Z,3.90
2023-05-23T12:43:53.184Z,5.68
2023-05-23T12:46:20.962Z,3.80
2023-05-23T12:48:47.775Z,3.67
2023-05-23T12:51:14.898Z,5.60
2023-05-23T12:53:41.554Z,6.63
2023-05-23T12:56:08.308Z,3.88
2023-05-23T12:58:35.341Z,4.35
2023-05-23T13:01:02.642Z,5.88
2023-05-23T13:03:31.264Z,2.45
2023-05-23T13:05:58.308Z,5.63
2023-05-23T13:08:25.847Z,5.60
2023-05-23T13:10:53.744Z,4.43
2023-05-23T13:13:21.056Z,5.47
2023-05-23T13:15:49.706Z,4.68
2023-05-23T13:18:17.590Z,4.50
2023-05-23T13:20:44.376Z,5.05
2023-05-23T13:23:11.069Z,3.15
2023-05-23T13:25:37.714Z,2.83
2023-05-23T13:28:04.382Z,4.00
2023-05-23T13:30:31.363Z,7.13
2023-05-23T13:32:58.170Z,7.43
2023-05-23T13:35:24.886Z,3.85
2023-05-23T13:37:51.724Z,4.05
2023-05-23T13:40:19.653Z,5.07
2023-05-23T13:42:47.754Z,4.72
2023-05-23T13:45:14.724Z,4.57
2023-05-23T13:47:41.654Z,4.57
2023-05-23T13:50:09.144Z,4.28
2023-05-23T13:52:36.264Z,5.68
2023-05-23T13:55:05.108Z,3.25
2023-05-23T13:57:31.931Z,2.58
2023-05-23T13:59:58.559Z,3.60
2023-05-23T14:02:25.356Z,4.55
2023-05-23T14:04:52.116Z,5.88
2023-05-23T14:07:18.961Z,4.47
2023-05-23T14:09:45.685Z,3.88
2023-05-23T14:12:12.358Z,3.53
2023-05-23T14:14:39.352Z,2.90
2023-05-23T14:17:06.096Z,11.63
2023-05-23T14:19:32.872Z,4.32
2023-05-23T14:21:59.539Z,5.43
2023-05-23T14:24:26.261Z,2.78
2023-05-23T14:26:53.294Z,7.40
2023-05-23T14:29:20.062Z,6.25
2023-05-23T14:31:46.724Z,4.53
2023-05-23T14:34:13.594Z,3.85
2023-05-23T14:36:40.391Z,3.78
2023-05-23T14:39:10.506Z,4.40
2023-05-23T14:41:37.647Z,5.43
2023-05-23T14:44:04.633Z,4.93
2023-05-23T14:46:31.629Z,7.65
2023-05-23T14:48:58.364Z,6.90
2023-05-23T14:51:43.097Z,3.63
2023-05-23T14:54:12.136Z,3.35
2023-05-23T14:56:41.150Z,3.55
2023-05-23T14:59:08.205Z,6.85
2023-05-23T15:01:35.716Z,4.88
2023-05-23T15:04:05.819Z,3.53
2023-05-23T15:06:33.230Z,2.95
2023-05-23T15:08:59.858Z,2.85
2023-05-23T15:11:42.690Z,4.15
2023-05-23T15:14:09.600Z,3.25
2023-05-23T15:16:36.836Z,4.93
2023-05-23T15:19:04.324Z,3.55
2023-05-23T15:21:32.311Z,5.00
2023-05-23T15:23:59.899Z,8.43
2023-05-23T15:26:27.436Z,10.18
2023-05-23T15:28:54.343Z,8.13
2023-05-23T15:31:21.153Z,4.70
2023-05-23T15:33:48.032Z,3.58
2023-05-23T15:36:14.707Z,11.25
2023-05-23T15:38:41.520Z,6.55
2023-05-23T15:41:08.187Z,6.18
2023-05-23T15:43:37.703Z,2.80
2023-05-23T15:46:04.979Z,4.78
2023-05-23T15:48:31.728Z,5.78
2023-05-23T15:51:00.545Z,6.78
2023-05-23T15:53:27.350Z,3.80
2023-05-23T15:55:54.129Z,7.97
2023-05-23T15:58:20.905Z,5.80
2023-05-23T16:00:47.653Z,5.78
2023-05-23T16:03:14.480Z,6.07
2023-05-23T16:05:41.391Z,17.33
2023-05-23T16:08:08.336Z,3.60
2023-05-23T16:10:35.121Z,3.90
2023-05-23T16:13:02.303Z,8.00
2023-05-23T16:15:28.958Z,6.97
2023-05-23T16:17:55.665Z,4.22
2023-05-23T16:20:22.448Z,3.10
2023-05-23T16:22:49.105Z,5.97
2023-05-23T16:25:15.807Z,5.53
2023-05-23T16:27:42.460Z,3.47
2023-05-23T16:30:09.945Z,4.50
2023-05-23T16:32:36.777Z,4.07
2023-05-23T16:35:03.576Z,3.90
2023-05-23T16:37:30.313Z,2.38
2023-05-23T16:39:57.012Z,3.83
2023-05-23T16:42:23.774Z,5.25
2023-05-23T16:44:50.960Z,4.00
2023-05-23T16:47:17.876Z,3.13
2023-05-23T16:49:44.736Z,4.72
2023-05-23T16:52:11.458Z,5.10
2023-05-23T16:54:38.224Z,5.07
2023-05-23T16:57:05.687Z,5.30
2023-05-23T16:59:32.776Z,4.55
2023-05-23T17:01:59.486Z,4.47
2023-05-23T17:04:26.228Z,3.75
2023-05-23T17:06:53.152Z,3.55
2023-05-23T17:09:22.111Z,4.03
2023-05-23T17:11:49.255Z,6.55
2023-05-23T17:14:16.269Z,4.88
2023-05-23T17:16:42.912Z,4.20
2023-05-23T17:19:09.731Z,4.85
2023-05-23T17:21:37.353Z,7.43
2023-05-23T17:24:04.246Z,3.33
2023-05-23T17:26:31.047Z,8.45
2023-05-23T17:28:57.767Z,5.90
2023-05-23T17:31:24.620Z,5.72
2023-05-23T17:33:51.384Z,7.22
2023-05-23T17:36:18.101Z,4.90
2023-05-23T17:38:44.826Z,4.50
2023-05-23T17:41:11.505Z,3.72
2023-05-23T17:43:39.414Z,6.90
2023-05-23T17:46:06.048Z,4.30
2023-05-23T17:48:46.458Z,5.00
2023-05-23T17:51:14.782Z,5.38
2023-05-23T17:53:41.857Z,5.38
2023-05-23T17:56:09.413Z,4.93
2023-05-23T17:58:41.797Z,3.40
2023-05-23T18:01:11.783Z,6.80
2023-05-23T18:03:38.973Z,9.10
2023-05-23T18:06:05.837Z,10.02
2023-05-23T18:08:32.524Z,12.40
2023-05-23T18:10:59.214Z,11.90
2023-05-23T18:13:26.037Z,10.65
2023-05-23T18:15:52.644Z,14.35
2023-05-23T18:18:19.568Z,7.43
2023-05-23T18:20:46.417Z,7.93
2023-05-23T18:23:13.201Z,5.35
2023-05-23T18:25:39.893Z,6.70
2023-05-23T18:28:06.514Z,10.55
2023-05-23T18:30:33.756Z,13.20
2023-05-23T18:33:00.733Z,17.35
2023-05-23T18:35:27.588Z,16.65
2023-05-23T18:37:54.509Z,13.98
2023-05-23T18:40:23.915Z,21.38
2023-05-23T18:42:50.719Z,20.33
2023-05-23T18:45:17.506Z,26.65
2023-05-23T18:47:44.852Z,33.33
2023-05-23T18:50:13.029Z,17.90
2023-05-23T18:52:40.055Z,11.50
2023-05-23T18:55:07.758Z,7.13
2023-05-23T18:57:34.489Z,4.25
2023-05-23T19:00:02.456Z,6.20
2023-05-23T19:02:29.391Z,6.88
2023-05-23T19:04:56.242Z,11.27
2023-05-23T19:07:23.018Z,7.15
2023-05-23T19:09:49.781Z,6.95
2023-05-23T19:12:16.801Z,5.05
2023-05-23T19:14:43.620Z,5.35
2023-05-23T19:17:10.477Z,8.15
2023-05-23T19:19:37.593Z,9.35
2023-05-23T19:22:04.636Z,7.53
2023-05-23T19:24:32.125Z,9.73
2023-05-23T19:26:58.968Z,15.85
2023-05-23T19:29:26.201Z,12.07
2023-05-23T19:31:53.089Z,6.53
2023-05-23T19:34:19.966Z,6.18
2023-05-23T19:36:46.672Z,10.70
2023-05-23T19:39:13.480Z,7.40
2023-05-23T19:41:40.718Z,6.25
2023-05-23T19:44:07.528Z,4.65
2023-05-23T19:46:34.401Z,5.65
2023-05-23T19:49:01.557Z,5.95
2023-05-23T19:51:29.124Z,5.32
2023-05-23T19:53:55.871Z,7.07
2023-05-23T19:56:22.978Z,7.25
2023-05-23T19:58:49.704Z,6.47
2023-05-23T20:01:16.473Z,7.40
2023-05-23T20:03:43.289Z,12.52
2023-05-23T20:06:10.149Z,13.13
2023-05-23T20:08:36.886Z,18.05
2023-05-23T20:11:03.625Z,18.42
2023-05-23T20:13:30.298Z,29.83
2023-05-23T20:15:57.007Z,37.58
2023-05-23T20:18:23.712Z,34.67
2023-05-23T20:20:50.581Z,32.55
2023-05-23T20:23:17.603Z,19.27
2023-05-23T20:25:44.276Z,16.85
2023-05-23T20:28:11.170Z,16.60
2023-05-23T20:30:37.891Z,24.27
2023-05-23T20:33:04.654Z,20.63
2023-05-23T20:35:31.368Z,37.05
2023-05-23T20:37:58.669Z,20.50
2023-05-23T20:40:27.037Z,33.58
2023-05-23T20:42:53.807Z,21.02
2023-05-23T20:45:20.525Z,18.83
2023-05-23T20:47:47.494Z,23.13
2023-05-23T20:50:14.903Z,19.73
2023-05-23T20:52:43.173Z,15.77
2023-05-23T20:55:10.858Z,15.45
2023-05-23T20:57:37.853Z,23.63
2023-05-23T21:00:13.696Z,21.13
2023-05-23T21:02:40.992Z,17.92
2023-05-23T21:05:08.522Z,17.70
2023-05-23T21:07:35.277Z,19.25
2023-05-23T21:10:02.329Z,19.40
2023-05-23T21:12:29.088Z,20.55
2023-05-23T21:14:58.808Z,13.35
2023-05-23T21:17:26.029Z,11.68
2023-05-23T21:19:52.737Z,12.70
2023-05-23T21:22:19.419Z,12.10
2023-05-23T21:24:46.335Z,11.63
2023-05-23T21:27:13.279Z,10.20
2023-05-23T21:29:40.579Z,10.38
2023-05-23T21:32:07.535Z,10.73
2023-05-23T21:34:34.272Z,15.88
2023-05-23T21:37:01.034Z,11.07
2023-05-23T21:39:39.221Z,19.33
2023-05-23T21:42:14.239Z,20.08
2023-05-23T21:44:41.220Z,17.92
2023-05-23T21:47:08.179Z,11.35
2023-05-23T21:49:35.514Z,9.95
2023-05-23T21:52:02.528Z,12.38
2023-05-23T21:54:29.196Z,7.22
2023-05-23T21:56:55.940Z,7.93
2023-05-23T21:59:22.896Z,15.32
2023-05-23T22:01:49.531Z,8.48
2023-05-23T22:04:19.971Z,7.47
2023-05-23T22:06:46.888Z,10.00
2023-05-23T22:09:15.348Z,8.35
2023-05-23T22:11:42.491Z,9.40
2023-05-23T22:14:09.485Z,10.70
2023-05-23T22:16:39.520Z,10.25
2023-05-23T22:19:06.982Z,8.52
2023-05-23T22:21:33.841Z,7.97
2023-05-23T22:24:00.712Z,9.45
2023-05-23T22:26:28.104Z,9.60
2023-05-23T22:28:55.187Z,8.50
2023-05-23T22:31:22.162Z,6.53
2023-05-23T22:33:48.862Z,9.55
2023-05-23T22:36:15.958Z,11.35
2023-05-23T22:38:42.759Z,8.70
2023-05-23T22:41:09.573Z,21.15
2023-05-23T22:43:37.201Z,12.05
2023-05-23T22:46:03.909Z,9.10
2023-05-23T22:48:33.845Z,13.10
2023-05-23T22:51:02.283Z,15.68
2023-05-23T22:53:29.612Z,8.13
2023-05-23T22:55:56.345Z,7.78
2023-05-23T22:58:23.010Z,10.80
2023-05-23T23:00:49.876Z,7.90
2023-05-23T23:03:16.722Z,6.15
2023-05-23T23:05:44.417Z,16.58
2023-05-23T23:08:12.025Z,8.02
2023-05-23T23:10:38.911Z,13.15
2023-05-23T23:13:05.686Z,7.47
2023-05-23T23:15:33.860Z,7.85
2023-05-23T23:18:01.257Z,9.00
2023-05-23T23:20:28.427Z,7.68
2023-05-23T23:22:55.213Z,7.95
2023-05-23T23:25:22.111Z,8.80
2023-05-23T23:27:48.849Z,8.55
2023-05-23T23:30:15.734Z,8.32
2023-05-23T23:32:42.501Z,8.20
2023-05-23T23:35:09.310Z,6.57
2023-05-23T23:37:36.057Z,5.85
2023-05-23T23:40:02.700Z,7.18
2023-05-23T23:42:29.534Z,6.68
2023-05-23T23:44:56.387Z,7.97
2023-05-23T23:47:23.169Z,11.00
2023-05-23T23:49:49.877Z,7.63
2023-05-23T23:52:16.648Z,6.65
2023-05-23T23:54:43.444Z,7.38
2023-05-23T23:57:14.145Z,12.00
2023-05-23T23:59:41.708Z,10.80
